sensor_id;sensor_type;location;lat;lon;timestamp;temperature;humidity
54832;DHT22;40730;53.068;6.572;2023-05-23T00:02:21;13.10;99.90
54832;DHT22;40730;53.068;6.572;2023-05-23T00:04:47;13.10;99.90
54832;DHT22;40730;53.068;6.572;2023-05-23T00:07:13;13.10;99.90
54832;DHT22;40730;53.068;6.572;2023-05-23T00:09:39;13.10;99.90
54832;DHT22;40730;53.068;6.572;2023-05-23T00:12:04;13.10;99.90
54832;DHT22;40730;53.068;6.572;2023-05-23T00:14:31;13.10;99.90
54832;DHT22;40730;53.068;6.572;2023-05-23T00:16:58;13.10;99.90
54832;DHT22;40730;53.068;6.572;2023-05-23T00:19:24;13.10;99.90
54832;DHT22;40730;53.068;6.572;2023-05-23T00:21:50;13.20;99.90
54832;DHT22;40730;53.068;6.572;2023-05-23T00:24:18;13.20;99.90
54832;DHT22;40730;53.068;6.572;2023-05-23T00:26:45;13.10;99.90
54832;DHT22;40730;53.068;6.572;2023-05-23T00:29:11;13.20;99.90
54832;DHT22;40730;53.068;6.572;2023-05-23T00:31:43;13.20;99.90
54832;DHT22;40730;53.068;6.572;2023-05-23T00:34:14;13.20;99.90
54832;DHT22;40730;53.068;6.572;2023-05-23T00:36:42;12.80;99.90
54832;DHT22;40730;53.068;6.572;2023-05-23T00:39:08;13.30;99.90
54832;DHT22;40730;53.068;6.572;2023-05-23T00:41:34;13.20;99.90
54832;DHT22;40730;53.068;6.572;2023-05-23T00:44:01;13.20;99.90
54832;DHT22;40730;53.068;6.572;2023-05-23T00:46:27;13.20;99.90
54832;DHT22;40730;53.068;6.572;2023-05-23T00:48:53;13.20;99.90
54832;DHT22;40730;53.068;6.572;2023-05-23T00:51:19;13.20;99.90
54832;DHT22;40730;53.068;6.572;2023-05-23T00:53:46;13.20;99.90
54832;DHT22;40730;53.068;6.572;2023-05-23T00:56:11;13.20;99.90
54832;DHT22;40730;53.068;6.572;2023-05-23T00:58:38;13.20;99.90
54832;DHT22;40730;53.068;6.572;2023-05-23T01:01:05;13.60;99.90
54832;DHT22;40730;53.068;6.572;2023-05-23T01:03:31;13.10;99.90
54832;DHT22;40730;53.068;6.572;2023-05-23T01:05:57;13.20;99.90
54832;DHT22;40730;53.068;6.572;2023-05-23T01:08:22;13.20;99.90
54832;DHT22;40730;53.068;6.572;2023-05-23T01:10:48;13.10;99.90
54832;DHT22;40730;53.068;6.572;2023-05-23T01:13:39;13.30;99.90
54832;DHT22;40730;53.068;6.572;2023-05-23T01:16:12;13.10;99.90
54832;DHT22;40730;53.068;6.572;2023-05-23T01:19:04;13.00;99.90
54832;DHT22;40730;53.068;6.572;2023-05-23T01:21:33;13.10;99.90
54832;DHT22;40730;53.068;6.572;2023-05-23T01:29:24;13.00;99.90
54832;DHT22;40730;53.068;6.572;2023-05-23T01:31:53;13.10;99.90
54832;DHT22;40730;53.068;6.572;2023-05-23T01:34:20;13.10;99.90
54832;DHT22;40730;53.068;6.572;2023-05-23T01:36:49;13.00;99.90
54832;DHT22;40730;53.068;6.572;2023-05-23T01:39:15;13.00;99.90
54832;DHT22;40730;53.068;6.572;2023-05-23T01:41:40;13.00;99.90
54832;DHT22;40730;53.068;6.572;2023-05-23T01:44:06;13.00;99.90
54832;DHT22;40730;53.068;6.572;2023-05-23T01:46:33;13.00;99.90
54832;DHT22;40730;53.068;6.572;2023-05-23T01:49:00;12.90;99.90
54832;DHT22;40730;53.068;6.572;2023-05-23T01:51:27;12.80;99.90
54832;DHT22;40730;53.068;6.572;2023-05-23T01:53:55;12.70;99.90
54832;DHT22;40730;53.068;6.572;2023-05-23T01:56:22;12.60;99.90
54832;DHT22;40730;53.068;6.572;2023-05-23T01:58:48;12.60;99.90
54832;DHT22;40730;53.068;6.572;2023-05-23T02:01:14;12.60;99.90
54832;DHT22;40730;53.068;6.572;2023-05-23T02:03:40;12.50;99.90
54832;DHT22;40730;53.068;6.572;2023-05-23T02:06:06;12.40;99.90
54832;DHT22;40730;53.068;6.572;2023-05-23T02:08:31;12.30;99.90
54832;DHT22;40730;53.068;6.572;2023-05-23T02:10:57;12.30;99.90
54832;DHT22;40730;53.068;6.572;2023-05-23T02:13:22;12.30;99.90
54832;DHT22;40730;53.068;6.572;2023-05-23T02:15:48;12.40;99.90
54832;DHT22;40730;53.068;6.572;2023-05-23T02:18:14;12.20;99.90
54832;DHT22;40730;53.068;6.572;2023-05-23T02:20:39;12.20;99.90
54832;DHT22;40730;53.068;6.572;2023-05-23T02:23:05;12.20;99.90
54832;DHT22;40730;53.068;6.572;2023-05-23T02:25:31;12.10;99.90
54832;DHT22;40730;53.068;6.572;2023-05-23T02:27:57;12.30;99.90
54832;DHT22;40730;53.068;6.572;2023-05-23T02:30:22;12.20;99.90
54832;DHT22;40730;53.068;6.572;2023-05-23T02:32:48;12.20;99.90
54832;DHT22;40730;53.068;6.572;2023-05-23T02:35:13;12.10;99.90
54832;DHT22;40730;53.068;6.572;2023-05-23T02:37:39;12.10;99.90
54832;DHT22;40730;53.068;6.572;2023-05-23T02:40:05;12.10;99.90
54832;DHT22;40730;53.068;6.572;2023-05-23T02:42:32;12.00;99.90
54832;DHT22;40730;53.068;6.572;2023-05-23T02:44:58;12.00;99.90
54832;DHT22;40730;53.068;6.572;2023-05-23T02:47:23;12.20;99.90
54832;DHT22;40730;53.068;6.572;2023-05-23T02:49:49;11.90;99.90
54832;DHT22;40730;53.068;6.572;2023-05-23T02:52:15;11.80;99.90
54832;DHT22;40730;53.068;6.572;2023-05-23T02:54:41;11.80;99.90
54832;DHT22;40730;53.068;6.572;2023-05-23T02:57:07;11.70;99.90
54832;DHT22;40730;53.068;6.572;2023-05-23T02:59:33;11.80;99.90
54832;DHT22;40730;53.068;6.572;2023-05-23T03:01:58;11.70;99.90
54832;DHT22;40730;53.068;6.572;2023-05-23T03:04:24;12.10;99.90
54832;DHT22;40730;53.068;6.572;2023-05-23T03:06:50;11.80;99.90
54832;DHT22;40730;53.068;6.572;2023-05-23T03:09:19;11.70;99.90
54832;DHT22;40730;53.068;6.572;2023-05-23T03:11:45;11.70;99.90
54832;DHT22;40730;53.068;6.572;2023-05-23T03:14:11;11.70;99.90
54832;DHT22;40730;53.068;6.572;2023-05-23T03:16:36;11.70;99.90
54832;DHT22;40730;53.068;6.572;2023-05-23T03:19:02;11.70;99.90
54832;DHT22;40730;53.068;6.572;2023-05-23T03:21:29;11.70;99.90
54832;DHT22;40730;53.068;6.572;2023-05-23T03:23:56;11.70;99.90
54832;DHT22;40730;53.068;6.572;2023-05-23T03:26:21;11.70;99.90
54832;DHT22;40730;53.068;6.572;2023-05-23T03:28:48;11.70;99.90
54832;DHT22;40730;53.068;6.572;2023-05-23T03:31:15;12.20;99.90
54832;DHT22;40730;53.068;6.572;2023-05-23T03:33:41;11.70;99.90
54832;DHT22;40730;53.068;6.572;2023-05-23T03:36:07;11.80;99.90
54832;DHT22;40730;53.068;6.572;2023-05-23T03:38:32;11.70;99.90
54832;DHT22;40730;53.068;6.572;2023-05-23T03:40:58;11.70;99.90
54832;DHT22;40730;53.068;6.572;2023-05-23T03:43:24;11.70;99.90
54832;DHT22;40730;53.068;6.572;2023-05-23T03:45:49;11.70;99.90
54832;DHT22;40730;53.068;6.572;2023-05-23T03:48:15;11.70;99.90
54832;DHT22;40730;53.068;6.572;2023-05-23T03:50:41;11.70;99.90
54832;DHT22;40730;53.068;6.572;2023-05-23T03:53:07;11.70;99.90
54832;DHT22;40730;53.068;6.572;2023-05-23T03:55:32;11.70;99.90
54832;DHT22;40730;53.068;6.572;2023-05-23T03:57:58;11.70;99.90
54832;DHT22;40730;53.068;6.572;2023-05-23T04:00:24;11.70;99.90
54832;DHT22;40730;53.068;6.572;2023-05-23T04:02:51;11.70;99.90
54832;DHT22;40730;53.068;6.572;2023-05-23T04:05:17;11.70;99.90
54832;DHT22;40730;53.068;6.572;2023-05-23T04:07:43;11.70;99.90
54832;DHT22;40730;53.068;6.572;2023-05-23T04:10:09;11.70;99.90
54832;DHT22;40730;53.068;6.572;2023-05-23T04:12:35;11.60;99.90
54832;DHT22;40730;53.068;6.572;2023-05-23T04:15:02;11.60;99.90
54832;DHT22;40730;53.068;6.572;2023-05-23T04:17:28;11.60;99.90
54832;DHT22;40730;53.068;6.572;2023-05-23T04:19:56;11.80;99.90
54832;DHT22;40730;53.068;6.572;2023-05-23T04:22:21;11.90;99.90
54832;DHT22;40730;53.068;6.572;2023-05-23T04:24:47;11.60;99.90
54832;DHT22;40730;53.068;6.572;2023-05-23T04:27:12;11.60;99.90
54832;DHT22;40730;53.068;6.572;2023-05-23T04:29:38;11.60;99.90
54832;DHT22;40730;53.068;6.572;2023-05-23T04:32:04;11.60;99.90
54832;DHT22;40730;53.068;6.572;2023-05-23T04:34:31;11.60;99.90
54832;DHT22;40730;53.068;6.572;2023-05-23T04:37:01;11.60;99.90
54832;DHT22;40730;53.068;6.572;2023-05-23T04:39:27;11.60;99.90
54832;DHT22;40730;53.068;6.572;2023-05-23T04:41:54;11.60;99.90
54832;DHT22;40730;53.068;6.572;2023-05-23T04:44:21;11.60;99.90
54832;DHT22;40730;53.068;6.572;2023-05-23T04:46:47;11.60;99.90
54832;DHT22;40730;53.068;6.572;2023-05-23T04:49:14;11.70;99.90
54832;DHT22;40730;53.068;6.572;2023-05-23T04:51:41;11.60;99.90
54832;DHT22;40730;53.068;6.572;2023-05-23T04:54:07;11.60;99.90
54832;DHT22;40730;53.068;6.572;2023-05-23T04:56:32;11.60;99.90
54832;DHT22;40730;53.068;6.572;2023-05-23T04:58:58;11.60;99.90
54832;DHT22;40730;53.068;6.572;2023-05-23T05:01:23;11.50;99.90
54832;DHT22;40730;53.068;6.572;2023-05-23T05:03:50;11.50;99.90
54832;DHT22;40730;53.068;6.572;2023-05-23T05:06:15;11.50;99.90
54832;DHT22;40730;53.068;6.572;2023-05-23T05:08:42;11.50;99.90
54832;DHT22;40730;53.068;6.572;2023-05-23T05:11:08;11.40;99.90
54832;DHT22;40730;53.068;6.572;2023-05-23T05:13:34;11.30;99.90
54832;DHT22;40730;53.068;6.572;2023-05-23T05:16:00;11.30;99.90
54832;DHT22;40730;53.068;6.572;2023-05-23T05:18:25;11.20;99.90
54832;DHT22;40730;53.068;6.572;2023-05-23T05:20:51;11.20;99.90
54832;DHT22;40730;53.068;6.572;2023-05-23T05:23:17;11.10;99.90
54832;DHT22;40730;53.068;6.572;2023-05-23T05:25:43;11.10;99.90
54832;DHT22;40730;53.068;6.572;2023-05-23T05:28:08;11.10;99.90
54832;DHT22;40730;53.068;6.572;2023-05-23T05:30:34;11.10;99.90
54832;DHT22;40730;53.068;6.572;2023-05-23T05:33:04;11.00;99.90
54832;DHT22;40730;53.068;6.572;2023-05-23T05:35:33;11.00;99.90
54832;DHT22;40730;53.068;6.572;2023-05-23T05:38:02;11.00;99.90
54832;DHT22;40730;53.068;6.572;2023-05-23T05:40:29;11.00;99.90
54832;DHT22;40730;53.068;6.572;2023-05-23T05:42:55;10.90;99.90
54832;DHT22;40730;53.068;6.572;2023-05-23T05:45:20;11.00;99.90
54832;DHT22;40730;53.068;6.572;2023-05-23T05:47:46;11.00;99.90
54832;DHT22;40730;53.068;6.572;2023-05-23T05:50:12;11.00;99.90
54832;DHT22;40730;53.068;6.572;2023-05-23T05:52:38;11.20;99.90
54832;DHT22;40730;53.068;6.572;2023-05-23T05:55:07;10.90;99.90
54832;DHT22;40730;53.068;6.572;2023-05-23T05:57:36;11.00;99.90
54832;DHT22;40730;53.068;6.572;2023-05-23T06:00:07;11.00;99.90
54832;DHT22;40730;53.068;6.572;2023-05-23T06:02:43;10.90;99.90
54832;DHT22;40730;53.068;6.572;2023-05-23T06:05:12;10.90;99.90
54832;DHT22;40730;53.068;6.572;2023-05-23T06:07:38;11.00;99.90
54832;DHT22;40730;53.068;6.572;2023-05-23T06:10:05;11.20;99.90
54832;DHT22;40730;53.068;6.572;2023-05-23T06:12:31;11.00;99.90
54832;DHT22;40730;53.068;6.572;2023-05-23T06:14:56;10.90;99.90
54832;DHT22;40730;53.068;6.572;2023-05-23T06:17:22;10.90;99.90
54832;DHT22;40730;53.068;6.572;2023-05-23T06:19:47;10.90;99.90
54832;DHT22;40730;53.068;6.572;2023-05-23T06:22:13;11.00;99.90
54832;DHT22;40730;53.068;6.572;2023-05-23T06:24:38;10.90;99.90
54832;DHT22;40730;53.068;6.572;2023-05-23T06:27:04;10.90;99.90
54832;DHT22;40730;53.068;6.572;2023-05-23T06:29:30;10.90;99.90
54832;DHT22;40730;53.068;6.572;2023-05-23T06:31:56;11.10;99.90
54832;DHT22;40730;53.068;6.572;2023-05-23T06:34:22;10.80;99.90
54832;DHT22;40730;53.068;6.572;2023-05-23T06:36:47;10.80;99.90
54832;DHT22;40730;53.068;6.572;2023-05-23T06:39:13;10.80;99.90
54832;DHT22;40730;53.068;6.572;2023-05-23T06:41:39;10.80;99.90
54832;DHT22;40730;53.068;6.572;2023-05-23T06:44:05;10.80;99.90
54832;DHT22;40730;53.068;6.572;2023-05-23T06:46:31;10.80;99.90
54832;DHT22;40730;53.068;6.572;2023-05-23T06:48:57;10.80;99.90
54832;DHT22;40730;53.068;6.572;2023-05-23T06:51:22;10.80;99.90
54832;DHT22;40730;53.068;6.572;2023-05-23T06:53:48;10.90;99.90
54832;DHT22;40730;53.068;6.572;2023-05-23T06:56:13;11.00;99.90
54832;DHT22;40730;53.068;6.572;2023-05-23T06:58:39;11.20;99.90
54832;DHT22;40730;53.068;6.572;2023-05-23T07:01:05;11.20;99.90
54832;DHT22;40730;53.068;6.572;2023-05-23T07:03:31;11.20;99.90
54832;DHT22;40730;53.068;6.572;2023-05-23T07:05:57;11.20;99.90
54832;DHT22;40730;53.068;6.572;2023-05-23T07:08:23;11.30;99.90
54832;DHT22;40730;53.068;6.572;2023-05-23T07:10:49;11.40;99.90
54832;DHT22;40730;53.068;6.572;2023-05-23T07:13:14;11.50;99.90
54832;DHT22;40730;53.068;6.572;2023-05-23T07:15:40;11.40;99.90
54832;DHT22;40730;53.068;6.572;2023-05-23T07:18:06;11.40;99.90
54832;DHT22;40730;53.068;6.572;2023-05-23T07:20:32;11.30;99.90
54832;DHT22;40730;53.068;6.572;2023-05-23T07:22:58;11.30;99.90
54832;DHT22;40730;53.068;6.572;2023-05-23T07:25:25;11.40;99.90
54832;DHT22;40730;53.068;6.572;2023-05-23T07:27:50;11.20;99.90
54832;DHT22;40730;53.068;6.572;2023-05-23T07:30:19;11.20;99.90
54832;DHT22;40730;53.068;6.572;2023-05-23T07:32:46;11.10;99.90
54832;DHT22;40730;53.068;6.572;2023-05-23T07:35:12;11.10;99.90
54832;DHT22;40730;53.068;6.572;2023-05-23T07:37:38;11.10;99.90
54832;DHT22;40730;53.068;6.572;2023-05-23T07:40:04;11.10;99.90
54832;DHT22;40730;53.068;6.572;2023-05-23T07:42:30;11.10;99.90
54832;DHT22;40730;53.068;6.572;2023-05-23T07:44:55;11.20;99.90
54832;DHT22;40730;53.068;6.572;2023-05-23T07:47:21;11.20;99.90
54832;DHT22;40730;53.068;6.572;2023-05-23T07:49:48;11.40;99.90
54832;DHT22;40730;53.068;6.572;2023-05-23T07:52:16;11.20;99.90
54832;DHT22;40730;53.068;6.572;2023-05-23T07:54:42;11.20;99.90
54832;DHT22;40730;53.068;6.572;2023-05-23T07:57:08;11.30;99.90
54832;DHT22;40730;53.068;6.572;2023-05-23T07:59:34;11.30;99.90
54832;DHT22;40730;53.068;6.572;2023-05-23T08:02:00;11.30;99.90
54832;DHT22;40730;53.068;6.572;2023-05-23T08:04:26;11.40;99.90
54832;DHT22;40730;53.068;6.572;2023-05-23T08:06:52;11.40;99.90
54832;DHT22;40730;53.068;6.572;2023-05-23T08:09:18;11.70;99.90
54832;DHT22;40730;53.068;6.572;2023-05-23T08:11:43;11.60;99.90
54832;DHT22;40730;53.068;6.572;2023-05-23T08:14:09;11.60;99.90
54832;DHT22;40730;53.068;6.572;2023-05-23T08:16:35;11.60;99.90
54832;DHT22;40730;53.068;6.572;2023-05-23T08:19:02;11.60;99.90
54832;DHT22;40730;53.068;6.572;2023-05-23T08:21:27;11.60;99.90
54832;DHT22;40730;53.068;6.572;2023-05-23T08:23:53;11.60;99.90
54832;DHT22;40730;53.068;6.572;2023-05-23T08:26:18;11.60;99.90
54832;DHT22;40730;53.068;6.572;2023-05-23T08:28:44;11.70;99.90
54832;DHT22;40730;53.068;6.572;2023-05-23T08:31:10;11.90;99.90
54832;DHT22;40730;53.068;6.572;2023-05-23T08:33:36;12.00;99.90
54832;DHT22;40730;53.068;6.572;2023-05-23T08:36:02;12.10;99.90
54832;DHT22;40730;53.068;6.572;2023-05-23T08:38:27;12.30;99.90
54832;DHT22;40730;53.068;6.572;2023-05-23T08:40:53;12.70;99.90
54832;DHT22;40730;53.068;6.572;2023-05-23T08:43:20;12.90;99.90
54832;DHT22;40730;53.068;6.572;2023-05-23T08:45:47;13.00;99.90
54832;DHT22;40730;53.068;6.572;2023-05-23T08:48:18;13.00;99.90
54832;DHT22;40730;53.068;6.572;2023-05-23T08:50:45;12.90;99.90
54832;DHT22;40730;53.068;6.572;2023-05-23T08:53:14;12.90;99.90
54832;DHT22;40730;53.068;6.572;2023-05-23T08:55:46;12.70;99.90
54832;DHT22;40730;53.068;6.572;2023-05-23T08:58:13;12.70;99.90
54832;DHT22;40730;53.068;6.572;2023-05-23T09:00:41;12.70;99.90
54832;DHT22;40730;53.068;6.572;2023-05-23T09:03:08;12.60;99.90
54832;DHT22;40730;53.068;6.572;2023-05-23T09:05:34;12.50;99.90
54832;DHT22;40730;53.068;6.572;2023-05-23T09:08:00;12.60;99.90
54832;DHT22;40730;53.068;6.572;2023-05-23T09:10:26;12.60;99.90
54832;DHT22;40730;53.068;6.572;2023-05-23T09:12:54;12.60;99.90
54832;DHT22;40730;53.068;6.572;2023-05-23T09:15:20;12.60;99.90
54832;DHT22;40730;53.068;6.572;2023-05-23T09:17:46;12.60;99.90
54832;DHT22;40730;53.068;6.572;2023-05-23T09:20:14;12.80;99.90
54832;DHT22;40730;53.068;6.572;2023-05-23T09:22:40;13.40;99.90
54832;DHT22;40730;53.068;6.572;2023-05-23T09:25:10;12.90;99.90
54832;DHT22;40730;53.068;6.572;2023-05-23T09:27:35;12.90;99.90
54832;DHT22;40730;53.068;6.572;2023-05-23T09:30:09;13.20;99.90
54832;DHT22;40730;53.068;6.572;2023-05-23T09:32:35;13.20;99.90
54832;DHT22;40730;53.068;6.572;2023-05-23T09:35:07;13.20;99.90
54832;DHT22;40730;53.068;6.572;2023-05-23T09:37:38;13.20;99.90
54832;DHT22;40730;53.068;6.572;2023-05-23T09:40:09;13.10;99.90
54832;DHT22;40730;53.068;6.572;2023-05-23T09:42:40;13.00;99.90
54832;DHT22;40730;53.068;6.572;2023-05-23T09:45:06;13.00;99.90
54832;DHT22;40730;53.068;6.572;2023-05-23T09:47:32;13.20;99.90
54832;DHT22;40730;53.068;6.572;2023-05-23T09:49:58;13.30;99.90
54832;DHT22;40730;53.068;6.572;2023-05-23T09:52:23;13.10;99.90
54832;DHT22;40730;53.068;6.572;2023-05-23T09:54:49;12.80;99.90
54832;DHT22;40730;53.068;6.572;2023-05-23T09:57:15;13.20;99.90
54832;DHT22;40730;53.068;6.572;2023-05-23T09:59:48;13.00;99.90
54832;DHT22;40730;53.068;6.572;2023-05-23T10:02:16;13.40;99.90
54832;DHT22;40730;53.068;6.572;2023-05-23T10:04:48;13.60;99.90
54832;DHT22;40730;53.068;6.572;2023-05-23T10:07:19;13.50;99.90
54832;DHT22;40730;53.068;6.572;2023-05-23T10:10:07;13.60;99.90
54832;DHT22;40730;53.068;6.572;2023-05-23T10:12:41;13.50;99.90
54832;DHT22;40730;53.068;6.572;2023-05-23T10:15:08;13.30;99.90
54832;DHT22;40730;53.068;6.572;2023-05-23T10:18:08;13.30;99.90
54832;DHT22;40730;53.068;6.572;2023-05-23T10:20:35;13.60;99.90
54832;DHT22;40730;53.068;6.572;2023-05-23T10:23:03;13.50;99.90
54832;DHT22;40730;53.068;6.572;2023-05-23T10:25:30;13.50;99.90
54832;DHT22;40730;53.068;6.572;2023-05-23T10:27:56;13.40;99.90
54832;DHT22;40730;53.068;6.572;2023-05-23T10:30:26;13.50;99.90
54832;DHT22;40730;53.068;6.572;2023-05-23T10:32:53;13.70;99.90
54832;DHT22;40730;53.068;6.572;2023-05-23T10:41:05;13.80;99.90
54832;DHT22;40730;53.068;6.572;2023-05-23T10:43:52;13.60;99.90
54832;DHT22;40730;53.068;6.572;2023-05-23T10:46:20;13.80;99.90
54832;DHT22;40730;53.068;6.572;2023-05-23T10:48:53;13.70;99.90
54832;DHT22;40730;53.068;6.572;2023-05-23T10:51:21;13.60;99.90
54832;DHT22;40730;53.068;6.572;2023-05-23T10:53:52;13.50;99.90
54832;DHT22;40730;53.068;6.572;2023-05-23T10:56:20;13.60;99.90
54832;DHT22;40730;53.068;6.572;2023-05-23T10:58:53;13.90;99.90
54832;DHT22;40730;53.068;6.572;2023-05-23T11:01:26;13.70;99.90
54832;DHT22;40730;53.068;6.572;2023-05-23T11:03:52;13.50;99.90
54832;DHT22;40730;53.068;6.572;2023-05-23T11:06:43;13.30;99.90
54832;DHT22;40730;53.068;6.572;2023-05-23T11:14:19;13.90;99.90
54832;DHT22;40730;53.068;6.572;2023-05-23T11:16:55;13.70;99.90
54832;DHT22;40730;53.068;6.572;2023-05-23T11:19:26;13.50;99.90
54832;DHT22;40730;53.068;6.572;2023-05-23T11:21:59;13.30;99.90
54832;DHT22;40730;53.068;6.572;2023-05-23T11:24:51;13.10;99.90
54832;DHT22;40730;53.068;6.572;2023-05-23T11:27:33;13.00;99.90
54832;DHT22;40730;53.068;6.572;2023-05-23T11:32:35;13.50;99.90
54832;DHT22;40730;53.068;6.572;2023-05-23T11:35:03;13.80;99.90
54832;DHT22;40730;53.068;6.572;2023-05-23T11:37:29;13.70;99.90
54832;DHT22;40730;53.068;6.572;2023-05-23T11:39:55;13.70;99.90
54832;DHT22;40730;53.068;6.572;2023-05-23T11:42:21;13.60;99.90
54832;DHT22;40730;53.068;6.572;2023-05-23T11:44:51;13.40;99.90
54832;DHT22;40730;53.068;6.572;2023-05-23T11:47:17;13.30;99.90
54832;DHT22;40730;53.068;6.572;2023-05-23T11:49:45;13.60;99.90
54832;DHT22;40730;53.068;6.572;2023-05-23T11:52:13;14.00;99.90
54832;DHT22;40730;53.068;6.572;2023-05-23T11:54:39;14.30;99.90
54832;DHT22;40730;53.068;6.572;2023-05-23T11:57:06;14.10;99.90
54832;DHT22;40730;53.068;6.572;2023-05-23T11:59:33;13.70;99.90
54832;DHT22;40730;53.068;6.572;2023-05-23T12:02:00;13.50;99.90
54832;DHT22;40730;53.068;6.572;2023-05-23T12:04:26;13.30;99.90
54832;DHT22;40730;53.068;6.572;2023-05-23T12:06:52;13.20;99.90
54832;DHT22;40730;53.068;6.572;2023-05-23T12:09:18;13.70;99.90
54832;DHT22;40730;53.068;6.572;2023-05-23T12:11:44;14.00;99.90
54832;DHT22;40730;53.068;6.572;2023-05-23T12:14:14;13.90;99.90
54832;DHT22;40730;53.068;6.572;2023-05-23T12:16:42;14.00;99.90
54832;DHT22;40730;53.068;6.572;2023-05-23T12:19:09;14.30;99.90
54832;DHT22;40730;53.068;6.572;2023-05-23T12:21:48;14.30;99.90
54832;DHT22;40730;53.068;6.572;2023-05-23T12:24:21;13.80;99.90
54832;DHT22;40730;53.068;6.572;2023-05-23T12:26:54;13.60;99.90
54832;DHT22;40730;53.068;6.572;2023-05-23T12:29:21;13.80;99.90
54832;DHT22;40730;53.068;6.572;2023-05-23T12:31:52;14.40;99.90
54832;DHT22;40730;53.068;6.572;2023-05-23T12:34:19;14.60;99.90
54832;DHT22;40730;53.068;6.572;2023-05-23T12:36:45;14.70;99.90
54832;DHT22;40730;53.068;6.572;2023-05-23T12:39:13;14.70;99.90
54832;DHT22;40730;53.068;6.572;2023-05-23T12:41:41;14.70;99.90
54832;DHT22;40730;53.068;6.572;2023-05-23T12:44:07;14.40;99.90
54832;DHT22;40730;53.068;6.572;2023-05-23T12:46:33;14.30;99.90
54832;DHT22;40730;53.068;6.572;2023-05-23T12:48:59;14.50;99.90
54832;DHT22;40730;53.068;6.572;2023-05-23T12:51:25;14.10;99.90
54832;DHT22;40730;53.068;6.572;2023-05-23T12:53:50;13.70;99.90
54832;DHT22;40730;53.068;6.572;2023-05-23T12:56:16;13.40;99.90
54832;DHT22;40730;53.068;6.572;2023-05-23T12:58:42;13.70;99.90
54832;DHT22;40730;53.068;6.572;2023-05-23T13:01:08;13.70;99.90
54832;DHT22;40730;53.068;6.572;2023-05-23T13:03:33;14.00;99.90
54832;DHT22;40730;53.068;6.572;2023-05-23T13:05:59;14.30;99.90
54832;DHT22;40730;53.068;6.572;2023-05-23T13:08:28;14.30;99.90
54832;DHT22;40730;53.068;6.572;2023-05-23T13:10:54;13.90;99.90
54832;DHT22;40730;53.068;6.572;2023-05-23T13:13:19;13.70;99.90
54832;DHT22;40730;53.068;6.572;2023-05-23T13:15:45;13.60;99.90
54832;DHT22;40730;53.068;6.572;2023-05-23T13:18:11;13.40;99.90
54832;DHT22;40730;53.068;6.572;2023-05-23T13:20:37;13.50;99.90
54832;DHT22;40730;53.068;6.572;2023-05-23T13:23:03;13.60;99.90
54832;DHT22;40730;53.068;6.572;2023-05-23T13:25:28;13.80;99.90
54832;DHT22;40730;53.068;6.572;2023-05-23T13:27:54;13.70;99.90
54832;DHT22;40730;53.068;6.572;2023-05-23T13:30:21;13.70;99.90
54832;DHT22;40730;53.068;6.572;2023-05-23T13:32:47;13.60;99.90
54832;DHT22;40730;53.068;6.572;2023-05-23T13:35:13;13.70;99.90
54832;DHT22;40730;53.068;6.572;2023-05-23T13:37:39;13.70;99.90
54832;DHT22;40730;53.068;6.572;2023-05-23T13:40:05;13.70;99.90
54832;DHT22;40730;53.068;6.572;2023-05-23T13:42:32;13.70;99.90
54832;DHT22;40730;53.068;6.572;2023-05-23T13:44:57;14.00;99.90
54832;DHT22;40730;53.068;6.572;2023-05-23T13:47:23;13.80;99.90
54832;DHT22;40730;53.068;6.572;2023-05-23T13:49:49;13.80;99.90
54832;DHT22;40730;53.068;6.572;2023-05-23T13:52:15;13.80;99.90
54832;DHT22;40730;53.068;6.572;2023-05-23T13:54:40;13.70;99.90
54832;DHT22;40730;53.068;6.572;2023-05-23T13:57:06;13.50;99.90
54832;DHT22;40730;53.068;6.572;2023-05-23T13:59:32;13.60;99.90
54832;DHT22;40730;53.068;6.572;2023-05-23T14:01:58;13.70;99.90
54832;DHT22;40730;53.068;6.572;2023-05-23T14:04:23;13.70;99.90
54832;DHT22;40730;53.068;6.572;2023-05-23T14:06:49;13.80;99.90
54832;DHT22;40730;53.068;6.572;2023-05-23T14:09:15;13.60;99.90
54832;DHT22;40730;53.068;6.572;2023-05-23T14:11:42;13.50;99.90
54832;DHT22;40730;53.068;6.572;2023-05-23T14:14:08;13.70;99.90
54832;DHT22;40730;53.068;6.572;2023-05-23T14:16:33;13.80;99.90
54832;DHT22;40730;53.068;6.572;2023-05-23T14:18:59;13.70;99.90
54832;DHT22;40730;53.068;6.572;2023-05-23T14:21:24;13.60;99.90
54832;DHT22;40730;53.068;6.572;2023-05-23T14:23:50;13.40;99.90
54832;DHT22;40730;53.068;6.572;2023-05-23T14:26:16;13.30;99.90
54832;DHT22;40730;53.068;6.572;2023-05-23T14:28:41;13.20;99.90
54832;DHT22;40730;53.068;6.572;2023-05-23T14:31:07;13.20;99.90
54832;DHT22;40730;53.068;6.572;2023-05-23T14:33:33;13.00;99.90
54832;DHT22;40730;53.068;6.572;2023-05-23T14:35:59;13.00;99.90
54832;DHT22;40730;53.068;6.572;2023-05-23T14:38:25;13.30;99.90
54832;DHT22;40730;53.068;6.572;2023-05-23T14:40:51;13.20;99.90
54832;DHT22;40730;53.068;6.572;2023-05-23T14:43:18;13.20;99.90
54832;DHT22;40730;53.068;6.572;2023-05-23T14:45:43;13.20;99.90
54832;DHT22;40730;53.068;6.572;2023-05-23T14:48:09;13.10;99.90
54832;DHT22;40730;53.068;6.572;2023-05-23T14:50:35;13.10;99.90
54832;DHT22;40730;53.068;6.572;2023-05-23T14:53:00;13.10;99.90
54832;DHT22;40730;53.068;6.572;2023-05-23T14:55:26;13.10;99.90
54832;DHT22;40730;53.068;6.572;2023-05-23T14:57:52;12.90;99.90
54832;DHT22;40730;53.068;6.572;2023-05-23T15:00:18;12.70;99.90
54832;DHT22;40730;53.068;6.572;2023-05-23T15:02:44;12.60;99.90
54832;DHT22;40730;53.068;6.572;2023-05-23T15:05:10;12.50;99.90
54832;DHT22;40730;53.068;6.572;2023-05-23T15:07:36;12.80;99.90
54832;DHT22;40730;53.068;6.572;2023-05-23T15:10:04;12.70;99.90
54832;DHT22;40730;53.068;6.572;2023-05-23T15:12:30;12.90;99.90
54832;DHT22;40730;53.068;6.572;2023-05-23T15:14:56;12.90;99.90
54832;DHT22;40730;53.068;6.572;2023-05-23T15:17:33;12.80;99.90
54832;DHT22;40730;53.068;6.572;2023-05-23T15:19:59;12.70;99.90
54832;DHT22;40730;53.068;6.572;2023-05-23T15:22:25;12.80;99.90
54832;DHT22;40730;53.068;6.572;2023-05-23T15:24:50;12.70;99.90
54832;DHT22;40730;53.068;6.572;2023-05-23T15:27:17;12.80;99.90
54832;DHT22;40730;53.068;6.572;2023-05-23T15:29:44;12.80;99.90
54832;DHT22;40730;53.068;6.572;2023-05-23T15:32:09;12.90;99.90
54832;DHT22;40730;53.068;6.572;2023-05-23T15:34:35;12.90;99.90
54832;DHT22;40730;53.068;6.572;2023-05-23T15:37:01;12.80;99.90
54832;DHT22;40730;53.068;6.572;2023-05-23T15:39:26;12.80;99.90
54832;DHT22;40730;53.068;6.572;2023-05-23T15:41:53;12.60;99.90
54832;DHT22;40730;53.068;6.572;2023-05-23T15:44:18;12.50;99.90
54832;DHT22;40730;53.068;6.572;2023-05-23T15:46:46;12.50;99.90
54832;DHT22;40730;53.068;6.572;2023-05-23T15:49:12;12.50;99.90